Pembroke, New York
Current Conditions -  °F | °C
As of 4:54 PM on Monday 24 Nov 2014 (Local Time) from KBUF Reporting Station
Broken Clouds Broken Clouds  
Wind Chill: 52°   Ceiling: 6000
Heat Index: 52°   Visibility: 10mi
Dew Point: 45°   Wind: 30mph
Humidity: 77%   Direction: 230°SW
Pressure: 29.39"   Gusts: 52mph
Location:  42.975°N, 78.3857°W
Report Text: KBUF 242154Z 23026G45KT 10SM FEW017 SCT027 BKN060 11/07 A2939 RMK AO2 PK WND 25045/2150 SLP953 RAE05 P0000 T01110072 $
Loading
Personal Weather Stations






























Interactive Weather Map New forecast layout! Learn more

10-Day Weather Forecast

Advertisements
Track Severe Weather on mobile